createdAt,value
2018-11-20T00:00:38.569Z,4.92
2018-11-20T00:02:22.615Z,4.95
2018-11-20T00:03:37.115Z,4.79
2018-11-20T00:04:51.773Z,4.84
2018-11-20T00:06:20.567Z,4.75
2018-11-20T00:07:51.777Z,4.78
2018-11-20T00:09:06.954Z,4.68
2018-11-20T00:10:22.018Z,4.76
2018-11-20T00:11:36.475Z,4.78
2018-11-20T00:12:50.676Z,4.67
2018-11-20T00:14:04.912Z,4.74
2018-11-20T00:15:18.870Z,4.7
2018-11-20T00:16:47.654Z,4.68
2018-11-20T00:18:02.151Z,4.7
2018-11-20T00:19:30.992Z,4.67
2018-11-20T00:20:45.627Z,4.66
2018-11-20T00:22:00.956Z,4.63
2018-11-20T00:23:15.689Z,4.64
2018-11-20T00:24:30.362Z,4.58
2018-11-20T00:25:44.853Z,4.56
2018-11-20T00:26:59.351Z,4.53
2018-11-20T00:28:13.540Z,4.56
2018-11-20T00:29:28.250Z,4.52
2018-11-20T00:30:42.949Z,4.46
2018-11-20T00:31:57.887Z,4.56
2018-11-20T00:33:12.621Z,4.53
2018-11-20T00:34:27.307Z,4.58
2018-11-20T00:35:42.215Z,4.49
2018-11-20T00:36:56.668Z,4.49
2018-11-20T00:38:11.176Z,4.49
2018-11-20T00:39:25.189Z,4.52
2018-11-20T00:40:39.625Z,4.49
2018-11-20T00:41:54.072Z,4.48
2018-11-20T00:43:08.255Z,4.42
2018-11-20T00:44:22.678Z,4.49
2018-11-20T00:45:37.162Z,4.49
2018-11-20T00:46:51.342Z,4.53
2018-11-20T00:48:06.090Z,4.39
2018-11-20T00:49:20.841Z,4.36
2018-11-20T00:50:34.506Z,4.49
2018-11-20T00:51:48.506Z,4.45
2018-11-20T00:53:02.418Z,4.34
2018-11-20T00:54:16.654Z,4.43
2018-11-20T00:55:31.117Z,4.38
2018-11-20T00:56:45.560Z,4.45
2018-11-20T00:58:00.103Z,4.4
2018-11-20T00:59:14.369Z,4.4
2018-11-20T01:00:28.866Z,4.46
2018-11-20T01:01:58.230Z,4.45
2018-11-20T01:03:12.253Z,4.45
2018-11-20T01:04:27.161Z,4.43
2018-11-20T01:05:42.738Z,4.4
2018-11-20T01:07:14.228Z,4.38
2018-11-20T01:08:28.882Z,4.49
2018-11-20T01:09:43.298Z,4.4
2018-11-20T01:10:57.248Z,4.5
2018-11-20T01:13:41.346Z,4.53
2018-11-20T01:14:55.625Z,4.5
2018-11-20T01:16:10.075Z,4.43
2018-11-20T01:17:23.754Z,4.45
2018-11-20T01:18:38.191Z,4.52
2018-11-20T01:19:52.191Z,4.5
2018-11-20T01:21:07.230Z,4.56
2018-11-20T01:22:21.720Z,4.52
2018-11-20T01:23:36.223Z,4.49
2018-11-20T01:24:50.674Z,4.46
2018-11-20T01:26:05.174Z,4.46
2018-11-20T01:27:20.112Z,4.56
2018-11-20T01:28:35.084Z,4.56
2018-11-20T01:30:04.521Z,4.56
2018-11-20T01:31:19.370Z,4.52
2018-11-20T01:32:34.241Z,4.46
2018-11-20T01:33:48.132Z,4.49
2018-11-20T01:35:03.172Z,4.53
2018-11-20T01:36:17.950Z,4.52
2018-11-20T01:37:32.093Z,4.5
2018-11-20T01:38:46.760Z,4.5
2018-11-20T01:40:01.376Z,4.48
2018-11-20T01:41:15.968Z,4.5
2018-11-20T01:42:30.761Z,4.42
2018-11-20T01:43:44.542Z,4.5
2018-11-20T01:44:59.093Z,4.45
2018-11-20T01:46:13.516Z,4.5
2018-11-20T01:47:28.069Z,4.48
2018-11-20T01:48:42.578Z,4.39
2018-11-20T01:49:57.421Z,4.46
2018-11-20T01:51:12.084Z,4.48
2018-11-20T01:52:27.028Z,4.48
2018-11-20T01:53:41.202Z,4.48
2018-11-20T01:54:55.635Z,4.46
2018-11-20T01:56:10.186Z,4.5
2018-11-20T01:57:24.408Z,4.5
2018-11-20T01:58:38.856Z,4.45
2018-11-20T01:59:53.844Z,4.48
2018-11-20T02:01:08.049Z,4.52
2018-11-20T02:02:22.358Z,4.5
2018-11-20T02:03:36.525Z,4.49
2018-11-20T02:04:51.234Z,4.48
2018-11-20T02:06:05.393Z,4.52
2018-11-20T02:07:19.823Z,4.38
2018-11-20T02:08:34.619Z,4.45
2018-11-20T02:09:49.076Z,4.39
2018-11-20T02:11:03.313Z,4.39
2018-11-20T02:12:17.501Z,4.39
2018-11-20T02:13:32.177Z,4.42
2018-11-20T02:14:46.273Z,4.38
2018-11-20T02:16:00.809Z,4.49
2018-11-20T02:17:15.656Z,4.42
2018-11-20T02:18:29.810Z,4.38
2018-11-20T02:19:44.537Z,4.49
2018-11-20T02:20:59.465Z,4.43
2018-11-20T02:22:15.831Z,4.45
2018-11-20T02:23:30.493Z,4.53
2018-11-20T02:24:45.840Z,4.5
2018-11-20T02:26:00.131Z,4.56
2018-11-20T02:27:14.817Z,4.52
2018-11-20T02:28:29.000Z,4.53
2018-11-20T02:29:43.835Z,4.53
2018-11-20T02:30:57.940Z,4.49
2018-11-20T02:32:12.806Z,4.5
2018-11-20T02:33:27.975Z,4.56
2018-11-20T02:34:42.848Z,4.56
2018-11-20T02:35:57.772Z,4.56
2018-11-20T02:37:12.607Z,4.52
2018-11-20T02:38:26.980Z,4.57
2018-11-20T02:39:42.046Z,4.56
2018-11-20T02:40:56.490Z,4.57
2018-11-20T02:42:10.834Z,4.57
2018-11-20T02:43:25.707Z,4.61
2018-11-20T02:44:41.034Z,4.53
2018-11-20T02:47:39.899Z,4.56
2018-11-20T02:48:53.901Z,4.48
2018-11-20T02:50:09.089Z,4.52
2018-11-20T02:51:23.870Z,4.49
2018-11-20T02:52:38.596Z,4.6
2018-11-20T02:53:53.454Z,4.56
2018-11-20T02:55:21.216Z,4.52
2018-11-20T02:56:36.262Z,4.52
2018-11-20T02:57:50.593Z,4.52
2018-11-20T02:59:04.744Z,4.52
2018-11-20T03:00:19.205Z,4.5
2018-11-20T03:01:33.634Z,4.5
2018-11-20T03:02:47.809Z,4.58
2018-11-20T03:04:02.010Z,4.57
2018-11-20T03:05:18.378Z,4.56
2018-11-20T03:06:32.821Z,4.61
2018-11-20T03:07:46.945Z,4.45
2018-11-20T03:09:01.418Z,4.5
2018-11-20T03:10:16.034Z,4.64
2018-11-20T03:11:31.166Z,4.57
2018-11-20T03:12:45.613Z,4.57
2018-11-20T03:14:00.487Z,4.56
2018-11-20T03:15:14.966Z,4.49
2018-11-20T03:16:29.106Z,4.58
2018-11-20T03:17:43.755Z,4.57
2018-11-20T03:18:57.613Z,4.57
2018-11-20T03:20:12.152Z,4.53
2018-11-20T03:21:26.897Z,4.6
2018-11-20T03:22:41.407Z,4.56
2018-11-20T03:23:55.967Z,4.56
2018-11-20T03:25:10.452Z,4.58
2018-11-20T03:26:39.510Z,4.52
2018-11-20T03:27:54.904Z,4.57
2018-11-20T03:29:09.564Z,4.58
2018-11-20T03:30:24.031Z,4.6
2018-11-20T03:31:38.465Z,4.52
2018-11-20T03:32:52.622Z,4.57
2018-11-20T03:34:06.830Z,4.52
2018-11-20T03:35:21.624Z,4.53
2018-11-20T03:36:36.379Z,4.57
2018-11-20T03:37:50.161Z,4.5
2018-11-20T03:39:04.613Z,4.57
2018-11-20T03:40:18.268Z,4.63
2018-11-20T03:41:32.314Z,4.64
2018-11-20T03:42:46.940Z,4.56
2018-11-20T03:44:16.341Z,4.58
2018-11-20T03:45:30.605Z,4.61
2018-11-20T03:46:45.532Z,4.56
2018-11-20T03:48:00.267Z,4.58
2018-11-20T03:49:15.264Z,4.57
2018-11-20T03:50:29.410Z,4.58
2018-11-20T03:51:43.850Z,4.56
2018-11-20T03:52:58.261Z,4.67
2018-11-20T03:54:12.501Z,4.63
2018-11-20T03:55:26.700Z,4.71
2018-11-20T03:56:41.229Z,4.57
2018-11-20T03:57:56.101Z,4.63
2018-11-20T03:59:24.777Z,4.61
2018-11-20T04:00:39.806Z,4.68
2018-11-20T04:01:53.933Z,4.71
2018-11-20T04:03:08.396Z,4.56
2018-11-20T04:04:22.620Z,4.61
2018-11-20T04:06:21.170Z,4.56
2018-11-20T04:07:35.070Z,4.52
2018-11-20T04:08:48.983Z,4.64
2018-11-20T04:10:03.178Z,4.63
2018-11-20T04:11:17.618Z,4.57
2018-11-20T04:12:31.864Z,4.68
2018-11-20T04:13:46.443Z,4.68
2018-11-20T04:15:00.775Z,4.63
2018-11-20T04:16:15.290Z,4.61
2018-11-20T04:17:30.015Z,4.67
2018-11-20T04:18:44.501Z,4.71
2018-11-20T04:20:00.964Z,4.7
2018-11-20T04:21:16.499Z,4.7
2018-11-20T04:22:31.262Z,4.6
2018-11-20T04:23:45.441Z,4.68
2018-11-20T04:24:59.473Z,4.79
2018-11-20T04:26:14.322Z,4.66
2018-11-20T04:27:28.888Z,4.67
2018-11-20T04:28:57.769Z,4.7
2018-11-20T04:30:11.981Z,4.68
2018-11-20T04:31:26.459Z,4.66
2018-11-20T04:32:41.205Z,4.57
2018-11-20T04:33:54.628Z,4.6
2018-11-20T04:35:09.062Z,4.64
2018-11-20T04:36:24.178Z,4.66
2018-11-20T04:37:38.874Z,4.64
2018-11-20T04:38:54.025Z,4.63
2018-11-20T04:40:09.150Z,4.5
2018-11-20T04:41:38.203Z,4.53
2018-11-20T04:42:52.364Z,4.61
2018-11-20T04:44:23.266Z,4.63
2018-11-20T04:45:37.473Z,4.7
2018-11-20T04:46:51.643Z,4.66
2018-11-20T04:48:06.304Z,4.71
2018-11-20T04:49:21.017Z,4.68
2018-11-20T04:50:34.954Z,4.74
2018-11-20T04:51:48.869Z,4.82
2018-11-20T04:53:03.148Z,4.7
2018-11-20T04:54:29.511Z,4.67
2018-11-20T04:55:43.212Z,4.64
2018-11-20T04:56:57.685Z,4.75
2018-11-20T04:58:12.340Z,4.66
2018-11-20T04:59:26.849Z,4.76
2018-11-20T05:00:41.349Z,4.68
2018-11-20T05:01:55.296Z,4.63
2018-11-20T05:03:10.089Z,4.67
2018-11-20T05:04:24.616Z,4.68
2018-11-20T05:05:39.451Z,4.71
2018-11-20T05:06:54.480Z,4.71
2018-11-20T05:08:09.087Z,4.7
2018-11-20T05:09:23.737Z,4.78
2018-11-20T05:10:37.995Z,4.68
2018-11-20T05:11:52.157Z,4.75
2018-11-20T05:13:06.263Z,4.67
2018-11-20T05:14:20.500Z,4.67
2018-11-20T05:15:35.031Z,4.68
2018-11-20T05:16:49.700Z,4.71
2018-11-20T05:18:04.421Z,4.63
2018-11-20T05:19:18.598Z,4.78
2018-11-20T05:20:32.521Z,4.66
2018-11-20T05:21:46.184Z,4.68
2018-11-20T05:23:00.098Z,4.86
2018-11-20T05:24:14.531Z,4.66
2018-11-20T05:25:28.683Z,4.75
2018-11-20T05:26:44.031Z,4.78
2018-11-20T05:28:13.343Z,4.7
2018-11-20T05:29:27.818Z,4.79
2018-11-20T05:30:42.587Z,4.76
2018-11-20T05:31:56.876Z,4.71
2018-11-20T05:33:10.836Z,4.79
2018-11-20T05:34:25.084Z,4.79
2018-11-20T05:35:39.371Z,4.82
2018-11-20T05:36:54.032Z,4.86
2018-11-20T05:38:08.633Z,4.87
2018-11-20T05:39:22.870Z,4.79
2018-11-20T05:40:38.005Z,4.86
2018-11-20T05:41:52.484Z,4.76
2018-11-20T05:43:06.933Z,4.67
2018-11-20T05:44:48.944Z,4.83
2018-11-20T05:46:03.981Z,4.79
2018-11-20T05:47:19.025Z,4.89
2018-11-20T05:48:33.213Z,4.82
2018-11-20T05:49:47.398Z,4.86
2018-11-20T05:51:01.851Z,4.79
2018-11-20T05:52:15.911Z,4.79
2018-11-20T05:53:39.508Z,4.78
2018-11-20T05:54:53.509Z,4.79
2018-11-20T05:56:07.572Z,4.89
2018-11-20T05:57:21.774Z,4.87
2018-11-20T05:58:36.227Z,4.86
2018-11-20T05:59:51.131Z,4.84
2018-11-20T06:01:05.570Z,4.83
2018-11-20T06:02:20.023Z,4.79
2018-11-20T06:03:36.581Z,4.84
2018-11-20T06:04:50.805Z,4.75
2018-11-20T06:06:20.540Z,4.78
2018-11-20T06:07:34.232Z,4.75
2018-11-20T06:08:49.305Z,4.74
2018-11-20T06:10:03.906Z,4.78
2018-11-20T06:11:18.248Z,4.82
2018-11-20T06:12:32.760Z,4.79
2018-11-20T06:13:47.167Z,4.83
2018-11-20T06:15:01.649Z,4.83
2018-11-20T06:16:15.579Z,4.79
2018-11-20T06:17:29.897Z,4.89
2018-11-20T06:18:44.698Z,4.76
2018-11-20T06:19:59.332Z,4.79
2018-11-20T06:21:13.746Z,4.82
2018-11-20T06:22:28.186Z,4.74
2018-11-20T06:23:43.361Z,4.67
2018-11-20T06:24:57.807Z,4.76
2018-11-20T06:26:12.173Z,4.79
2018-11-20T06:27:26.898Z,4.74
2018-11-20T06:28:41.277Z,4.76
2018-11-20T06:29:56.879Z,4.7
2018-11-20T06:32:40.206Z,4.84
2018-11-20T06:33:54.638Z,4.83
2018-11-20T06:35:09.609Z,4.84
2018-11-20T06:36:23.524Z,4.74
2018-11-20T06:37:37.463Z,4.82
2018-11-20T06:38:51.409Z,4.86
2018-11-20T06:40:05.606Z,4.86
2018-11-20T06:41:21.271Z,4.82
2018-11-20T06:42:37.156Z,4.9
2018-11-20T06:43:51.377Z,4.83
2018-11-20T06:45:06.071Z,5
2018-11-20T06:46:20.334Z,4.94
2018-11-20T06:47:35.160Z,4.95
2018-11-20T06:48:49.089Z,4.98
2018-11-20T06:50:03.403Z,5.04
2018-11-20T06:51:17.706Z,4.95
2018-11-20T06:52:32.448Z,5.01
2018-11-20T06:53:48.078Z,5.04
2018-11-20T06:55:01.995Z,5.02
2018-11-20T06:56:16.531Z,4.98
2018-11-20T06:57:46.021Z,4.9
2018-11-20T06:59:00.607Z,4.9
2018-11-20T07:00:14.886Z,4.9
2018-11-20T07:01:29.451Z,4.92
2018-11-20T07:03:01.323Z,4.95
2018-11-20T07:04:16.350Z,4.94
2018-11-20T07:05:31.019Z,4.94
2018-11-20T07:06:45.205Z,4.97
2018-11-20T07:08:01.028Z,4.94
2018-11-20T07:09:16.441Z,4.92
2018-11-20T07:10:31.000Z,4.9
2018-11-20T07:11:45.923Z,4.9
2018-11-20T07:13:01.744Z,4.89
2018-11-20T07:14:16.051Z,4.94
2018-11-20T07:15:31.179Z,5.04
2018-11-20T07:16:46.766Z,5.05
2018-11-20T07:18:01.890Z,5.01
2018-11-20T07:19:16.803Z,5.02
2018-11-20T07:20:31.801Z,5
2018-11-20T07:21:46.324Z,5.07
2018-11-20T07:23:02.456Z,5.08
2018-11-20T07:24:18.014Z,5.02
2018-11-20T07:25:33.714Z,5.01
2018-11-20T07:26:48.669Z,4.97
2018-11-20T07:28:19.475Z,5.04
2018-11-20T07:29:35.468Z,5
2018-11-20T07:30:52.835Z,4.94
2018-11-20T07:32:08.118Z,5.04
2018-11-20T07:33:22.592Z,4.9
2018-11-20T07:34:37.764Z,5.02
2018-11-20T07:35:52.413Z,4.98
2018-11-20T07:37:08.199Z,5.02
2018-11-20T07:38:23.029Z,4.97
2018-11-20T07:39:37.316Z,4.97
2018-11-20T07:40:52.035Z,5.01
2018-11-20T07:42:07.222Z,5.08
2018-11-20T07:43:36.408Z,5.02
2018-11-20T07:44:51.233Z,5
2018-11-20T07:46:05.738Z,4.98
2018-11-20T07:47:21.230Z,4.98
2018-11-20T07:48:36.614Z,5
2018-11-20T07:49:51.322Z,5.01
2018-11-20T07:51:05.802Z,5.02
2018-11-20T07:52:34.268Z,5.05
2018-11-20T07:53:48.854Z,5.1
2018-11-20T07:55:03.085Z,5.05
2018-11-20T07:56:18.614Z,5.07
2018-11-20T07:57:33.283Z,5.18
2018-11-20T07:58:47.967Z,5.16
2018-11-20T08:00:03.957Z,5.2
2018-11-20T08:01:19.168Z,5.2
2018-11-20T08:02:33.877Z,5.2
2018-11-20T08:03:48.857Z,5.22
2018-11-20T08:05:03.478Z,5.23
2018-11-20T08:06:18.203Z,5.26
2018-11-20T08:07:32.734Z,5.23
2018-11-20T08:08:47.631Z,5.22
2018-11-20T08:10:01.844Z,5.26
2018-11-20T08:11:16.361Z,5.25
2018-11-20T08:12:30.823Z,5.23
2018-11-20T08:13:45.302Z,5.2
2018-11-20T08:15:00.226Z,5.29
2018-11-20T08:16:15.619Z,5.25
2018-11-20T08:17:30.573Z,5.23
2018-11-20T08:18:45.487Z,5.41
2018-11-20T08:20:00.450Z,5.43
2018-11-20T08:21:14.406Z,5.36
2018-11-20T08:22:29.103Z,5.36
2018-11-20T08:23:43.519Z,5.38
2018-11-20T08:24:57.934Z,5.46
2018-11-20T08:26:12.256Z,5.38
2018-11-20T08:27:27.175Z,5.43
2018-11-20T08:28:41.007Z,5.31
2018-11-20T08:29:55.507Z,5.38
2018-11-20T08:31:10.508Z,5.31
2018-11-20T08:32:24.614Z,5.33
2018-11-20T08:33:39.262Z,5.28
2018-11-20T08:34:53.278Z,5.41
2018-11-20T08:36:07.731Z,5.37
2018-11-20T08:37:22.277Z,5.31
2018-11-20T08:38:36.543Z,5.41
2018-11-20T08:39:51.441Z,5.43
2018-11-20T08:41:05.661Z,5.49
2018-11-20T08:42:20.290Z,5.59
2018-11-20T08:43:35.172Z,5.55
2018-11-20T08:44:49.952Z,5.56
2018-11-20T08:46:04.414Z,5.52
2018-11-20T08:47:34.991Z,5.62
2018-11-20T08:48:49.337Z,5.54
2018-11-20T08:50:03.580Z,5.52
2018-11-20T08:51:17.989Z,5.49
2018-11-20T08:52:32.004Z,5.56
2018-11-20T08:53:47.038Z,5.55
2018-11-20T08:55:02.156Z,5.55
2018-11-20T08:56:16.612Z,5.73
2018-11-20T08:57:31.042Z,5.61
2018-11-20T08:58:45.468Z,5.56
2018-11-20T08:59:59.561Z,5.55
2018-11-20T09:01:14.451Z,5.61
2018-11-20T09:02:29.992Z,5.54
2018-11-20T09:03:43.922Z,5.55
2018-11-20T09:04:58.848Z,5.51
2018-11-20T09:06:13.146Z,5.65
2018-11-20T09:07:27.976Z,5.67
2018-11-20T09:08:41.926Z,5.67
2018-11-20T09:09:58.054Z,5.67
2018-11-20T09:11:17.920Z,5.64
2018-11-20T09:12:50.485Z,5.8
2018-11-20T09:14:04.510Z,5.73
2018-11-20T09:15:20.243Z,5.77
2018-11-20T09:16:35.068Z,5.83
2018-11-20T09:17:50.114Z,5.8
2018-11-20T09:19:04.529Z,5.83
2018-11-20T09:20:20.521Z,5.81
2018-11-20T09:21:43.725Z,5.92
2018-11-20T09:22:58.213Z,5.83
2018-11-20T09:24:12.373Z,5.99
2018-11-20T09:25:27.453Z,5.88
2018-11-20T09:26:42.424Z,5.94
2018-11-20T09:27:56.791Z,5.97
2018-11-20T09:29:11.729Z,5.87
2018-11-20T09:30:26.026Z,5.8
2018-11-20T09:31:39.996Z,5.9
2018-11-20T09:32:54.314Z,5.91
2018-11-20T09:34:08.281Z,5.91
2018-11-20T09:35:24.255Z,5.97
2018-11-20T09:36:39.556Z,5.91
2018-11-20T09:37:54.036Z,6.01
2018-11-20T09:39:08.889Z,6.15
2018-11-20T09:40:23.280Z,6.05
2018-11-20T09:41:37.758Z,6.16
2018-11-20T09:42:51.399Z,5.9
2018-11-20T09:44:06.222Z,6.1
2018-11-20T09:45:20.825Z,5.95
2018-11-20T09:46:35.097Z,6.02
2018-11-20T09:47:50.567Z,5.94
2018-11-20T09:49:04.579Z,5.98
2018-11-20T09:50:19.349Z,6.1
2018-11-20T09:51:33.310Z,6.05
2018-11-20T09:52:47.754Z,6.13
2018-11-20T09:54:02.377Z,6.25
2018-11-20T09:55:16.327Z,6.19
2018-11-20T09:56:30.997Z,6.16
2018-11-20T09:57:45.431Z,6.13
2018-11-20T09:58:59.699Z,6.19
2018-11-20T10:00:13.717Z,6.25
2018-11-20T10:01:28.231Z,6.28
2018-11-20T10:02:42.231Z,6.28
2018-11-20T10:03:57.569Z,6.28
2018-11-20T10:05:12.249Z,6.26
2018-11-20T10:06:27.009Z,6.28
2018-11-20T10:07:41.477Z,6.22
2018-11-20T10:08:56.630Z,6.02
2018-11-20T10:10:11.446Z,6.02
2018-11-20T10:11:25.913Z,6.09
2018-11-20T10:12:40.415Z,6.09
2018-11-20T10:13:55.431Z,6.17
2018-11-20T10:15:11.245Z,6.12
2018-11-20T10:16:26.074Z,6.17
2018-11-20T10:17:39.773Z,6.22
2018-11-20T10:18:54.757Z,6.09
2018-11-20T10:20:09.733Z,6.13
2018-11-20T10:21:24.408Z,6.06
2018-11-20T10:22:39.457Z,6.01
2018-11-20T10:23:55.021Z,6.09
2018-11-20T10:25:09.745Z,6.05
2018-11-20T10:26:26.253Z,6.19
2018-11-20T10:27:41.175Z,6.28
2018-11-20T10:28:55.126Z,6.26
2018-11-20T10:31:22.736Z,6.38
2018-11-20T10:32:36.971Z,6.29
2018-11-20T10:33:51.830Z,6.32
2018-11-20T10:35:07.452Z,6.36
2018-11-20T10:36:21.777Z,6.44
2018-11-20T10:37:51.496Z,6.46
2018-11-20T10:39:20.839Z,6.39
2018-11-20T10:40:47.229Z,6.39
2018-11-20T10:42:01.227Z,6.41
2018-11-20T10:43:15.799Z,6.47
2018-11-20T10:44:29.473Z,6.49
2018-11-20T10:45:43.158Z,6.49
2018-11-20T10:46:57.453Z,6.39
2018-11-20T10:49:40.866Z,6.46
2018-11-20T10:50:54.963Z,6.44
2018-11-20T10:52:08.946Z,6.46
2018-11-20T10:53:38.490Z,6.44
2018-11-20T10:55:23.295Z,6.43
2018-11-20T10:56:38.004Z,6.57
2018-11-20T10:57:53.731Z,6.47
2018-11-20T10:59:08.564Z,6.44
2018-11-20T11:00:39.235Z,6.38
2018-11-20T11:02:23.143Z,6.38
2018-11-20T11:03:38.024Z,6.36
2018-11-20T11:04:52.889Z,6.46
2018-11-20T11:06:22.947Z,6.46
2018-11-20T11:07:38.324Z,6.43
2018-11-20T11:08:54.359Z,6.52
2018-11-20T11:10:38.367Z,6.59
2018-11-20T11:12:07.382Z,6.54
2018-11-20T11:13:23.538Z,6.46
2018-11-20T11:14:38.834Z,6.49
2018-11-20T11:15:53.072Z,6.56
2018-11-20T11:17:07.603Z,6.53
2018-11-20T11:18:22.078Z,6.5
2018-11-20T11:19:36.255Z,6.49
2018-11-20T11:20:49.694Z,6.52
2018-11-20T11:22:04.797Z,6.52
2018-11-20T11:23:19.008Z,6.56
2018-11-20T11:24:33.742Z,6.62
2018-11-20T11:25:48.544Z,6.54
2018-11-20T11:27:02.957Z,6.59
2018-11-20T11:28:17.917Z,6.59
2018-11-20T11:30:30.414Z,6.53
2018-11-20T11:31:46.199Z,6.62
2018-11-20T11:33:00.911Z,6.68
2018-11-20T11:34:30.612Z,6.67
2018-11-20T11:35:44.604Z,6.71
2018-11-20T11:36:59.348Z,6.77
2018-11-20T11:38:13.565Z,6.72
2018-11-20T11:39:28.117Z,6.75
2018-11-20T11:40:42.823Z,6.78
2018-11-20T11:41:57.248Z,6.83
2018-11-20T11:43:11.432Z,6.78
2018-11-20T11:44:26.396Z,6.8
2018-11-20T11:45:40.773Z,6.87
2018-11-20T11:46:55.026Z,6.85
2018-11-20T11:48:09.284Z,6.89
2018-11-20T11:49:24.048Z,6.82
2018-11-20T11:50:38.320Z,6.89
2018-11-20T11:51:52.789Z,6.82
2018-11-20T11:53:07.725Z,6.83
2018-11-20T11:54:38.903Z,6.87
2018-11-20T11:55:53.136Z,6.93
2018-11-20T11:57:07.562Z,7.01
2018-11-20T11:58:21.532Z,7.04
2018-11-20T11:59:36.600Z,6.96
2018-11-20T12:00:51.226Z,6.9
2018-11-20T12:03:18.544Z,7.01
2018-11-20T12:04:33.003Z,7.04
2018-11-20T12:05:47.298Z,7.01
2018-11-20T12:07:17.339Z,6.97
2018-11-20T12:08:31.558Z,7.01
2018-11-20T12:09:46.015Z,6.97
2018-11-20T12:11:30.872Z,6.96
2018-11-20T12:13:01.014Z,6.86
2018-11-20T12:14:16.583Z,6.85
2018-11-20T12:15:31.517Z,6.83
2018-11-20T12:16:46.083Z,6.87
2018-11-20T12:18:00.115Z,6.82
2018-11-20T12:19:14.325Z,6.87
2018-11-20T12:20:36.441Z,6.86
2018-11-20T12:21:51.236Z,6.8
2018-11-20T12:23:06.435Z,6.85
2018-11-20T12:24:20.912Z,6.78
2018-11-20T12:25:37.318Z,6.83
2018-11-20T12:26:52.581Z,6.85
2018-11-20T12:28:07.001Z,6.87
2018-11-20T12:29:24.454Z,6.82
2018-11-20T12:30:46.675Z,6.71
2018-11-20T12:32:03.529Z,6.77
2018-11-20T12:33:18.691Z,6.83
2018-11-20T12:34:35.534Z,6.89
2018-11-20T12:35:49.686Z,6.87
2018-11-20T12:37:08.675Z,6.96
2018-11-20T12:38:24.261Z,6.9
2018-11-20T12:39:43.389Z,7
2018-11-20T12:40:57.875Z,6.93
2018-11-20T12:42:12.727Z,6.95
2018-11-20T12:43:27.213Z,6.97
2018-11-20T12:44:47.224Z,7
2018-11-20T12:46:01.988Z,6.85
2018-11-20T12:47:20.653Z,6.97
2018-11-20T12:48:38.433Z,6.97
2018-11-20T12:49:54.419Z,6.97
2018-11-20T12:51:27.336Z,6.95
2018-11-20T12:52:43.555Z,7
2018-11-20T12:54:10.682Z,7.01
2018-11-20T12:55:27.116Z,7.08
2018-11-20T12:56:41.669Z,7.18
2018-11-20T12:57:56.521Z,7.11
2018-11-20T12:59:10.763Z,7.13
2018-11-20T13:00:25.051Z,6.95
2018-11-20T13:01:39.103Z,7.01
2018-11-20T13:02:53.879Z,6.95
2018-11-20T13:04:23.586Z,7.07
2018-11-20T13:05:38.789Z,7.04
2018-11-20T13:06:52.934Z,6.95
2018-11-20T13:08:08.092Z,6.92
2018-11-20T13:10:12.484Z,6.85
2018-11-20T13:11:27.097Z,6.92
2018-11-20T13:12:43.896Z,6.83
2018-11-20T13:14:02.611Z,6.85
2018-11-20T13:15:17.364Z,6.85
2018-11-20T13:16:32.334Z,6.93
2018-11-20T13:17:46.835Z,6.85
2018-11-20T13:19:01.908Z,6.87
2018-11-20T13:20:17.673Z,6.72
2018-11-20T13:21:32.782Z,6.83
2018-11-20T13:22:49.472Z,6.87
2018-11-20T13:24:04.669Z,6.72
2018-11-20T13:25:23.804Z,6.68
2018-11-20T13:26:37.746Z,6.78
2018-11-20T13:27:52.843Z,6.72
2018-11-20T13:29:07.071Z,6.68
2018-11-20T13:30:21.820Z,6.64
2018-11-20T13:31:36.985Z,6.72
2018-11-20T13:32:52.330Z,6.74
2018-11-20T13:34:07.870Z,6.68
2018-11-20T13:35:22.819Z,6.67
2018-11-20T13:36:37.487Z,6.56
2018-11-20T13:37:51.985Z,6.56
2018-11-20T13:39:08.098Z,6.56
2018-11-20T13:40:24.153Z,6.49
2018-11-20T13:41:40.229Z,6.6
2018-11-20T13:42:54.599Z,6.53
2018-11-20T13:44:08.829Z,6.57
2018-11-20T13:45:24.291Z,6.54
2018-11-20T13:46:38.796Z,6.56
2018-11-20T13:47:55.084Z,6.65
2018-11-20T13:49:11.739Z,6.54
2018-11-20T13:50:24.303Z,6.31
2018-11-20T13:51:39.810Z,6.44
2018-11-20T13:52:57.264Z,6.5
2018-11-20T13:54:11.823Z,6.46
2018-11-20T13:55:29.581Z,6.56
2018-11-20T13:56:46.259Z,6.52
2018-11-20T13:58:00.726Z,6.53
2018-11-20T13:59:15.300Z,6.5
2018-11-20T14:00:45.013Z,6.38
2018-11-20T14:01:59.475Z,6.35
2018-11-20T14:03:13.450Z,6.43
2018-11-20T14:04:28.709Z,6.41
2018-11-20T14:05:42.905Z,6.49
2018-11-20T14:06:57.366Z,6.44
2018-11-20T14:08:11.999Z,6.39
2018-11-20T14:09:42.811Z,6.59
2018-11-20T14:10:56.822Z,6.56
2018-11-20T14:12:11.233Z,6.46
2018-11-20T14:13:25.709Z,6.5
2018-11-20T14:14:40.169Z,6.43
2018-11-20T14:15:53.929Z,6.46
2018-11-20T14:17:08.513Z,6.5
2018-11-20T14:18:22.706Z,6.46
2018-11-20T14:19:40.701Z,6.49
2018-11-20T14:20:54.957Z,6.43
2018-11-20T14:22:09.140Z,6.56
2018-11-20T14:23:23.283Z,6.49
2018-11-20T14:24:37.541Z,6.46
2018-11-20T14:25:51.737Z,6.46
2018-11-20T14:27:20.855Z,6.44
2018-11-20T14:28:34.838Z,6.49
2018-11-20T14:29:49.900Z,6.38
2018-11-20T14:31:04.160Z,6.38
2018-11-20T14:32:18.755Z,6.46
2018-11-20T14:33:33.412Z,6.47
2018-11-20T14:34:47.906Z,6.38
2018-11-20T14:36:02.495Z,6.47
2018-11-20T14:37:17.245Z,6.28
2018-11-20T14:38:31.768Z,6.29
2018-11-20T14:39:45.717Z,6.29
2018-11-20T14:41:04.326Z,6.28
2018-11-20T14:42:16.936Z,6.31
2018-11-20T14:43:31.462Z,6.29
2018-11-20T14:44:45.976Z,6.32
2018-11-20T14:46:00.168Z,6.34
2018-11-20T14:47:14.419Z,6.31
2018-11-20T14:48:29.254Z,6.31
2018-11-20T14:49:43.587Z,6.34
2018-11-20T14:50:58.226Z,6.39
2018-11-20T14:52:12.441Z,6.44
2018-11-20T14:53:26.721Z,6.46
2018-11-20T14:54:41.547Z,6.44
2018-11-20T14:56:10.665Z,6.44
2018-11-20T14:57:24.920Z,6.46
2018-11-20T14:58:39.509Z,6.39
2018-11-20T14:59:53.775Z,6.44
2018-11-20T15:01:08.036Z,6.36
2018-11-20T15:02:22.519Z,6.43
2018-11-20T15:03:37.255Z,6.35
2018-11-20T15:04:51.719Z,6.34
2018-11-20T15:06:49.775Z,6.16
2018-11-20T15:08:06.194Z,6.26
2018-11-20T15:09:20.384Z,6.31
2018-11-20T15:10:35.301Z,6.19
2018-11-20T15:11:50.468Z,6.22
2018-11-20T15:13:04.290Z,6.2
2018-11-20T15:14:18.623Z,6.19
2018-11-20T15:15:33.326Z,6.26
2018-11-20T15:16:46.808Z,6.2
2018-11-20T15:18:01.812Z,6.2
2018-11-20T15:19:15.768Z,6.26
2018-11-20T15:20:30.251Z,6.2
2018-11-20T15:21:44.753Z,6.13
2018-11-20T15:22:59.140Z,6.25
2018-11-20T15:24:14.497Z,6.25
2018-11-20T15:25:29.430Z,6.22
2018-11-20T15:26:45.339Z,6.31
2018-11-20T15:28:01.415Z,6.32
2018-11-20T15:29:16.660Z,6.32
2018-11-20T15:30:31.699Z,6.36
2018-11-20T15:31:46.875Z,6.29
2018-11-20T15:33:16.346Z,6.34
2018-11-20T15:34:30.744Z,6.28
2018-11-20T15:35:45.431Z,6.22
2018-11-20T15:36:59.655Z,6.25
2018-11-20T15:38:13.896Z,6.17
2018-11-20T15:39:28.499Z,6.25
2018-11-20T15:40:42.739Z,6.17
2018-11-20T15:41:58.076Z,6.17
2018-11-20T15:43:16.883Z,6.22
2018-11-20T15:44:32.010Z,6.2
2018-11-20T15:45:47.942Z,6.09
2018-11-20T15:47:16.376Z,6.15
2018-11-20T15:48:47.900Z,6.2
2018-11-20T15:50:02.674Z,6.2
2018-11-20T15:51:17.697Z,6.13
2018-11-20T15:52:31.896Z,6.22
2018-11-20T15:53:46.955Z,6.22
2018-11-20T15:55:01.711Z,6.2
2018-11-20T15:56:16.223Z,6.19
2018-11-20T15:57:30.784Z,6.17
2018-11-20T15:58:47.486Z,6.25
2018-11-20T16:00:03.153Z,6.15
2018-11-20T16:01:25.067Z,6.16
2018-11-20T16:02:39.653Z,6.15
2018-11-20T16:03:54.405Z,6.25
2018-11-20T16:05:24.132Z,6.17
2018-11-20T16:06:39.564Z,6.2
2018-11-20T16:07:53.776Z,6.19
2018-11-20T16:09:07.772Z,6.15
2018-11-20T16:10:23.123Z,6.15
2018-11-20T16:11:37.662Z,6.05
2018-11-20T16:12:51.413Z,6.02
2018-11-20T16:14:06.610Z,6.02
2018-11-20T16:15:20.816Z,6.05
2018-11-20T16:16:35.036Z,6.07
2018-11-20T16:17:49.516Z,6.09
2018-11-20T16:19:03.981Z,6.09
2018-11-20T16:20:18.486Z,6.07
2018-11-20T16:21:33.019Z,6.02
2018-11-20T16:22:48.243Z,6.05
2018-11-20T16:24:02.760Z,6.06
2018-11-20T16:25:17.287Z,6.01
2018-11-20T16:26:31.886Z,6.05
2018-11-20T16:27:46.211Z,6.07
2018-11-20T16:29:01.082Z,5.99
2018-11-20T16:30:16.095Z,6.1
2018-11-20T16:31:30.828Z,6.02
2018-11-20T16:32:45.344Z,6.02
2018-11-20T16:33:59.613Z,6.09
2018-11-20T16:35:14.624Z,6.02
2018-11-20T16:36:28.826Z,6.02
2018-11-20T16:37:43.560Z,6.01
2018-11-20T16:38:57.800Z,5.94
2018-11-20T16:40:27.463Z,5.95
2018-11-20T16:41:47.140Z,5.94
2018-11-20T16:43:01.671Z,5.94
2018-11-20T16:44:16.498Z,5.95
2018-11-20T16:45:31.083Z,5.94
2018-11-20T16:46:46.024Z,5.97
2018-11-20T16:48:16.214Z,5.91
2018-11-20T16:49:31.717Z,5.91
2018-11-20T16:50:46.584Z,5.84
2018-11-20T16:52:01.135Z,5.92
2018-11-20T16:53:15.650Z,5.91
2018-11-20T16:56:01.929Z,5.77
2018-11-20T16:57:16.764Z,5.81
2018-11-20T16:58:31.745Z,5.88
2018-11-20T16:59:46.304Z,5.87
2018-11-20T17:01:01.523Z,5.88
2018-11-20T17:02:17.045Z,5.81
2018-11-20T17:03:32.941Z,5.87
2018-11-20T17:04:47.781Z,5.73
2018-11-20T17:06:02.080Z,5.83
2018-11-20T17:07:16.030Z,5.83